sensor_id;sensor_type;location;lat;lon;timestamp;temperature;humidity
16180;DHT22;8196;49.428;10.906;2023-04-06T00:00:53;-2.00;99.90
16180;DHT22;8196;49.428;10.906;2023-04-06T00:03:20;-2.30;99.90
16180;DHT22;8196;49.428;10.906;2023-04-06T00:05:47;-2.20;99.90
16180;DHT22;8196;49.428;10.906;2023-04-06T00:08:14;-2.20;99.90
16180;DHT22;8196;49.428;10.906;2023-04-06T00:10:41;-2.20;99.90
16180;DHT22;8196;49.428;10.906;2023-04-06T00:13:08;-2.30;99.90
16180;DHT22;8196;49.428;10.906;2023-04-06T00:15:36;-2.30;99.90
16180;DHT22;8196;49.428;10.906;2023-04-06T00:18:03;-2.30;99.90
16180;DHT22;8196;49.428;10.906;2023-04-06T00:20:30;-2.30;99.90
16180;DHT22;8196;49.428;10.906;2023-04-06T00:22:57;-2.40;99.90
16180;DHT22;8196;49.428;10.906;2023-04-06T00:25:24;-2.40;99.90
16180;DHT22;8196;49.428;10.906;2023-04-06T00:27:50;-2.40;99.90
16180;DHT22;8196;49.428;10.906;2023-04-06T00:30:17;-2.40;99.90
16180;DHT22;8196;49.428;10.906;2023-04-06T00:32:44;-2.50;99.90
16180;DHT22;8196;49.428;10.906;2023-04-06T00:35:11;-2.50;99.90
16180;DHT22;8196;49.428;10.906;2023-04-06T00:37:38;-2.50;99.90
16180;DHT22;8196;49.428;10.906;2023-04-06T00:40:05;-2.50;99.90
16180;DHT22;8196;49.428;10.906;2023-04-06T00:42:32;-2.60;99.90
16180;DHT22;8196;49.428;10.906;2023-04-06T00:45:01;-2.60;99.90
16180;DHT22;8196;49.428;10.906;2023-04-06T00:47:28;-2.60;99.90
16180;DHT22;8196;49.428;10.906;2023-04-06T00:49:56;-2.60;99.90
16180;DHT22;8196;49.428;10.906;2023-04-06T00:52:23;-2.60;99.90
16180;DHT22;8196;49.428;10.906;2023-04-06T00:54:50;-2.60;99.90
16180;DHT22;8196;49.428;10.906;2023-04-06T00:57:17;-2.60;99.90
16180;DHT22;8196;49.428;10.906;2023-04-06T00:59:45;-2.60;99.90
16180;DHT22;8196;49.428;10.906;2023-04-06T01:02:12;-2.60;99.90
16180;DHT22;8196;49.428;10.906;2023-04-06T01:04:39;-2.70;99.90
16180;DHT22;8196;49.428;10.906;2023-04-06T01:07:06;-2.70;99.90
16180;DHT22;8196;49.428;10.906;2023-04-06T01:09:33;-2.70;99.90
16180;DHT22;8196;49.428;10.906;2023-04-06T01:12:00;-2.70;99.90
16180;DHT22;8196;49.428;10.906;2023-04-06T01:14:27;-2.70;99.90
16180;DHT22;8196;49.428;10.906;2023-04-06T01:16:54;-2.70;99.90
16180;DHT22;8196;49.428;10.906;2023-04-06T01:19:22;-2.70;99.90
16180;DHT22;8196;49.428;10.906;2023-04-06T01:21:48;-2.70;99.90
16180;DHT22;8196;49.428;10.906;2023-04-06T01:24:17;-2.80;99.90
16180;DHT22;8196;49.428;10.906;2023-04-06T01:26:44;-2.80;99.90
16180;DHT22;8196;49.428;10.906;2023-04-06T01:29:11;-2.80;99.90
16180;DHT22;8196;49.428;10.906;2023-04-06T01:31:38;-2.90;99.90
16180;DHT22;8196;49.428;10.906;2023-04-06T01:34:06;-2.90;99.90
16180;DHT22;8196;49.428;10.906;2023-04-06T01:36:33;-3.00;99.90
16180;DHT22;8196;49.428;10.906;2023-04-06T01:38:59;-3.00;99.90
16180;DHT22;8196;49.428;10.906;2023-04-06T01:41:26;-3.00;99.90
16180;DHT22;8196;49.428;10.906;2023-04-06T01:43:53;-3.10;99.90
16180;DHT22;8196;49.428;10.906;2023-04-06T01:46:21;-3.10;99.90
16180;DHT22;8196;49.428;10.906;2023-04-06T01:48:48;-3.10;99.90
16180;DHT22;8196;49.428;10.906;2023-04-06T01:51:15;-3.20;99.90
16180;DHT22;8196;49.428;10.906;2023-04-06T01:53:42;-3.20;99.90
16180;DHT22;8196;49.428;10.906;2023-04-06T01:56:08;-3.20;99.90
16180;DHT22;8196;49.428;10.906;2023-04-06T01:58:35;-3.20;99.90
16180;DHT22;8196;49.428;10.906;2023-04-06T02:01:04;-3.10;99.90
16180;DHT22;8196;49.428;10.906;2023-04-06T02:03:31;-3.10;99.90
16180;DHT22;8196;49.428;10.906;2023-04-06T02:05:58;-3.10;99.90
16180;DHT22;8196;49.428;10.906;2023-04-06T02:08:25;-3.10;99.90
16180;DHT22;8196;49.428;10.906;2023-04-06T02:10:52;-3.10;99.90
16180;DHT22;8196;49.428;10.906;2023-04-06T02:13:18;-3.20;99.90
16180;DHT22;8196;49.428;10.906;2023-04-06T02:15:47;-3.20;99.90
16180;DHT22;8196;49.428;10.906;2023-04-06T02:18:14;-3.20;99.90
16180;DHT22;8196;49.428;10.906;2023-04-06T02:20:41;-3.20;99.90
16180;DHT22;8196;49.428;10.906;2023-04-06T02:23:08;-3.20;99.90
16180;DHT22;8196;49.428;10.906;2023-04-06T02:25:35;-3.20;99.90
16180;DHT22;8196;49.428;10.906;2023-04-06T02:28:02;-3.20;99.90
16180;DHT22;8196;49.428;10.906;2023-04-06T02:30:29;-3.30;99.90
16180;DHT22;8196;49.428;10.906;2023-04-06T02:32:56;-3.30;99.90
16180;DHT22;8196;49.428;10.906;2023-04-06T02:35:24;-3.20;99.90
16180;DHT22;8196;49.428;10.906;2023-04-06T02:37:51;-3.30;99.90
16180;DHT22;8196;49.428;10.906;2023-04-06T02:40:18;-3.30;99.90
16180;DHT22;8196;49.428;10.906;2023-04-06T02:42:44;-3.30;99.90
16180;DHT22;8196;49.428;10.906;2023-04-06T02:45:12;-3.30;99.90
16180;DHT22;8196;49.428;10.906;2023-04-06T02:47:38;-3.30;99.90
16180;DHT22;8196;49.428;10.906;2023-04-06T02:50:05;-3.30;99.90
16180;DHT22;8196;49.428;10.906;2023-04-06T02:52:32;-3.30;99.90
16180;DHT22;8196;49.428;10.906;2023-04-06T02:55:01;-3.40;99.90
16180;DHT22;8196;49.428;10.906;2023-04-06T02:57:28;-3.40;99.90
16180;DHT22;8196;49.428;10.906;2023-04-06T02:59:54;-3.40;99.90
16180;DHT22;8196;49.428;10.906;2023-04-06T03:02:21;-3.40;99.90
16180;DHT22;8196;49.428;10.906;2023-04-06T03:04:48;-3.40;99.90
16180;DHT22;8196;49.428;10.906;2023-04-06T03:07:15;-3.50;99.90
16180;DHT22;8196;49.428;10.906;2023-04-06T03:09:42;-3.40;99.90
16180;DHT22;8196;49.428;10.906;2023-04-06T03:12:08;-3.50;99.90
16180;DHT22;8196;49.428;10.906;2023-04-06T03:14:36;-3.50;99.90
16180;DHT22;8196;49.428;10.906;2023-04-06T03:17:02;-3.50;99.90
16180;DHT22;8196;49.428;10.906;2023-04-06T03:19:29;-3.50;99.90
16180;DHT22;8196;49.428;10.906;2023-04-06T03:21:56;-3.50;99.90
16180;DHT22;8196;49.428;10.906;2023-04-06T03:24:23;-3.50;99.90
16180;DHT22;8196;49.428;10.906;2023-04-06T03:26:49;-3.50;99.90
16180;DHT22;8196;49.428;10.906;2023-04-06T03:29:16;-3.60;99.90
16180;DHT22;8196;49.428;10.906;2023-04-06T03:31:43;-3.60;99.90
16180;DHT22;8196;49.428;10.906;2023-04-06T03:34:10;-3.60;99.90
16180;DHT22;8196;49.428;10.906;2023-04-06T03:36:36;-3.60;99.90
16180;DHT22;8196;49.428;10.906;2023-04-06T03:39:04;-3.60;99.90
16180;DHT22;8196;49.428;10.906;2023-04-06T03:41:32;-3.60;99.90
16180;DHT22;8196;49.428;10.906;2023-04-06T03:43:59;-3.70;99.90
16180;DHT22;8196;49.428;10.906;2023-04-06T03:46:25;-3.70;99.90
16180;DHT22;8196;49.428;10.906;2023-04-06T03:48:52;-3.70;99.90
16180;DHT22;8196;49.428;10.906;2023-04-06T03:51:21;-3.70;99.90
16180;DHT22;8196;49.428;10.906;2023-04-06T03:53:48;-3.70;99.90
16180;DHT22;8196;49.428;10.906;2023-04-06T03:56:14;-3.70;99.90
16180;DHT22;8196;49.428;10.906;2023-04-06T03:58:41;-3.80;99.90
16180;DHT22;8196;49.428;10.906;2023-04-06T04:01:11;-3.70;99.90
16180;DHT22;8196;49.428;10.906;2023-04-06T04:03:37;-3.80;99.90
16180;DHT22;8196;49.428;10.906;2023-04-06T04:06:04;-3.80;99.90
16180;DHT22;8196;49.428;10.906;2023-04-06T04:08:32;-3.80;99.90
16180;DHT22;8196;49.428;10.906;2023-04-06T04:10:59;-3.80;99.90
16180;DHT22;8196;49.428;10.906;2023-04-06T04:13:26;-3.80;99.90
16180;DHT22;8196;49.428;10.906;2023-04-06T04:15:52;-3.80;99.90
16180;DHT22;8196;49.428;10.906;2023-04-06T04:18:19;-3.80;99.90
16180;DHT22;8196;49.428;10.906;2023-04-06T04:20:46;-3.80;99.90
16180;DHT22;8196;49.428;10.906;2023-04-06T04:23:13;-3.80;99.90
16180;DHT22;8196;49.428;10.906;2023-04-06T04:25:40;-3.80;99.90
16180;DHT22;8196;49.428;10.906;2023-04-06T04:28:07;-3.80;99.90
16180;DHT22;8196;49.428;10.906;2023-04-06T04:30:34;-3.90;99.90
16180;DHT22;8196;49.428;10.906;2023-04-06T04:33:01;-3.90;99.90
16180;DHT22;8196;49.428;10.906;2023-04-06T04:35:28;-3.90;99.90
16180;DHT22;8196;49.428;10.906;2023-04-06T04:37:54;-4.00;99.90
16180;DHT22;8196;49.428;10.906;2023-04-06T04:40:21;-4.00;99.90
16180;DHT22;8196;49.428;10.906;2023-04-06T04:42:48;-4.00;99.90
16180;DHT22;8196;49.428;10.906;2023-04-06T04:45:15;-4.00;99.90
16180;DHT22;8196;49.428;10.906;2023-04-06T04:47:42;-4.00;99.90
16180;DHT22;8196;49.428;10.906;2023-04-06T04:50:09;-4.00;99.90
16180;DHT22;8196;49.428;10.906;2023-04-06T04:52:37;-4.00;99.90
16180;DHT22;8196;49.428;10.906;2023-04-06T04:55:04;-4.00;99.90
16180;DHT22;8196;49.428;10.906;2023-04-06T04:57:31;-4.00;99.90
16180;DHT22;8196;49.428;10.906;2023-04-06T04:59:58;-3.90;99.90
16180;DHT22;8196;49.428;10.906;2023-04-06T05:02:25;-3.90;99.90
16180;DHT22;8196;49.428;10.906;2023-04-06T05:04:52;-3.90;99.90
16180;DHT22;8196;49.428;10.906;2023-04-06T05:07:19;-3.80;99.90
16180;DHT22;8196;49.428;10.906;2023-04-06T05:09:47;-3.80;99.90
16180;DHT22;8196;49.428;10.906;2023-04-06T05:12:14;-3.70;99.90
16180;DHT22;8196;49.428;10.906;2023-04-06T05:14:41;-3.60;99.90
16180;DHT22;8196;49.428;10.906;2023-04-06T05:17:09;-3.40;99.90
16180;DHT22;8196;49.428;10.906;2023-04-06T05:19:36;-3.20;99.90
16180;DHT22;8196;49.428;10.906;2023-04-06T05:22:03;-3.10;99.90
16180;DHT22;8196;49.428;10.906;2023-04-06T05:24:29;-2.90;99.90
16180;DHT22;8196;49.428;10.906;2023-04-06T05:26:56;-2.50;99.90
16180;DHT22;8196;49.428;10.906;2023-04-06T05:29:23;-2.10;99.90
16180;DHT22;8196;49.428;10.906;2023-04-06T05:31:51;-1.70;99.90
16180;DHT22;8196;49.428;10.906;2023-04-06T05:34:17;-1.20;99.90
16180;DHT22;8196;49.428;10.906;2023-04-06T05:36:44;-0.70;99.90
16180;DHT22;8196;49.428;10.906;2023-04-06T05:39:12;-0.30;99.90
16180;DHT22;8196;49.428;10.906;2023-04-06T05:41:39;0.20;99.90
16180;DHT22;8196;49.428;10.906;2023-04-06T05:44:05;0.20;99.90
16180;DHT22;8196;49.428;10.906;2023-04-06T05:46:32;0.00;99.90
16180;DHT22;8196;49.428;10.906;2023-04-06T05:48:59;-0.30;99.90
16180;DHT22;8196;49.428;10.906;2023-04-06T05:51:26;-0.60;99.90
16180;DHT22;8196;49.428;10.906;2023-04-06T05:53:53;-0.90;99.90
16180;DHT22;8196;49.428;10.906;2023-04-06T05:56:20;-1.00;99.90
16180;DHT22;8196;49.428;10.906;2023-04-06T05:58:47;-1.10;99.90
16180;DHT22;8196;49.428;10.906;2023-04-06T06:01:14;-1.20;99.90
16180;DHT22;8196;49.428;10.906;2023-04-06T06:03:41;-1.30;99.90
16180;DHT22;8196;49.428;10.906;2023-04-06T06:06:08;-1.40;99.90
16180;DHT22;8196;49.428;10.906;2023-04-06T06:08:35;-1.40;99.90
16180;DHT22;8196;49.428;10.906;2023-04-06T06:11:02;-1.40;99.90
16180;DHT22;8196;49.428;10.906;2023-04-06T06:13:28;-1.40;99.90
16180;DHT22;8196;49.428;10.906;2023-04-06T06:15:55;-1.40;99.90
16180;DHT22;8196;49.428;10.906;2023-04-06T06:18:22;-1.30;99.90
16180;DHT22;8196;49.428;10.906;2023-04-06T06:20:49;-1.30;99.90
16180;DHT22;8196;49.428;10.906;2023-04-06T06:23:16;-1.20;99.90
16180;DHT22;8196;49.428;10.906;2023-04-06T06:25:42;-1.10;99.90
16180;DHT22;8196;49.428;10.906;2023-04-06T06:28:09;-1.00;99.90
16180;DHT22;8196;49.428;10.906;2023-04-06T06:30:36;1.60;99.90
16180;DHT22;8196;49.428;10.906;2023-04-06T06:33:03;-0.70;99.90
16180;DHT22;8196;49.428;10.906;2023-04-06T06:35:29;-0.60;99.90
16180;DHT22;8196;49.428;10.906;2023-04-06T06:37:56;-0.50;99.90
16180;DHT22;8196;49.428;10.906;2023-04-06T06:40:23;-0.40;99.90
16180;DHT22;8196;49.428;10.906;2023-04-06T06:42:50;-0.20;99.90
16180;DHT22;8196;49.428;10.906;2023-04-06T06:45:18;0.00;99.90
16180;DHT22;8196;49.428;10.906;2023-04-06T06:47:45;0.20;99.90
16180;DHT22;8196;49.428;10.906;2023-04-06T06:50:12;0.40;99.90
16180;DHT22;8196;49.428;10.906;2023-04-06T06:52:39;0.50;99.90
16180;DHT22;8196;49.428;10.906;2023-04-06T06:55:07;0.60;99.90
16180;DHT22;8196;49.428;10.906;2023-04-06T06:57:34;0.80;99.90
16180;DHT22;8196;49.428;10.906;2023-04-06T07:00:01;1.00;99.90
16180;DHT22;8196;49.428;10.906;2023-04-06T07:02:28;1.20;99.90
16180;DHT22;8196;49.428;10.906;2023-04-06T07:04:55;1.30;99.90
16180;DHT22;8196;49.428;10.906;2023-04-06T07:07:22;1.60;99.90
16180;DHT22;8196;49.428;10.906;2023-04-06T07:09:48;1.90;99.90
16180;DHT22;8196;49.428;10.906;2023-04-06T07:12:15;2.10;99.90
16180;DHT22;8196;49.428;10.906;2023-04-06T07:14:43;2.20;99.90
16180;DHT22;8196;49.428;10.906;2023-04-06T07:17:09;2.30;99.90
16180;DHT22;8196;49.428;10.906;2023-04-06T07:19:36;2.40;99.90
16180;DHT22;8196;49.428;10.906;2023-04-06T07:22:03;2.50;99.90
16180;DHT22;8196;49.428;10.906;2023-04-06T07:24:31;2.70;99.90
16180;DHT22;8196;49.428;10.906;2023-04-06T07:26:58;2.90;99.90
16180;DHT22;8196;49.428;10.906;2023-04-06T07:29:27;3.10;99.90
16180;DHT22;8196;49.428;10.906;2023-04-06T07:31:54;3.20;99.90
16180;DHT22;8196;49.428;10.906;2023-04-06T07:34:21;3.30;99.90
16180;DHT22;8196;49.428;10.906;2023-04-06T07:36:48;3.50;99.90
16180;DHT22;8196;49.428;10.906;2023-04-06T07:39:15;3.80;99.90
16180;DHT22;8196;49.428;10.906;2023-04-06T07:41:42;4.00;99.90
16180;DHT22;8196;49.428;10.906;2023-04-06T07:44:08;4.10;99.90
16180;DHT22;8196;49.428;10.906;2023-04-06T07:46:36;4.20;99.70
16180;DHT22;8196;49.428;10.906;2023-04-06T07:49:03;6.30;99.80
16180;DHT22;8196;49.428;10.906;2023-04-06T07:51:30;4.50;98.60
16180;DHT22;8196;49.428;10.906;2023-04-06T07:53:57;4.60;97.50
16180;DHT22;8196;49.428;10.906;2023-04-06T07:56:24;4.80;97.80
16180;DHT22;8196;49.428;10.906;2023-04-06T07:58:51;5.00;97.10
16180;DHT22;8196;49.428;10.906;2023-04-06T08:01:20;5.20;96.40
16180;DHT22;8196;49.428;10.906;2023-04-06T08:03:46;5.40;96.00
16180;DHT22;8196;49.428;10.906;2023-04-06T08:06:14;5.70;94.80
16180;DHT22;8196;49.428;10.906;2023-04-06T08:08:41;5.90;94.70
16180;DHT22;8196;49.428;10.906;2023-04-06T08:11:09;6.00;94.10
16180;DHT22;8196;49.428;10.906;2023-04-06T08:13:35;6.30;94.10
16180;DHT22;8196;49.428;10.906;2023-04-06T08:16:02;6.50;93.90
16180;DHT22;8196;49.428;10.906;2023-04-06T08:18:30;6.90;93.80
16180;DHT22;8196;49.428;10.906;2023-04-06T08:20:56;7.30;92.90
16180;DHT22;8196;49.428;10.906;2023-04-06T08:23:23;8.80;92.40
16180;DHT22;8196;49.428;10.906;2023-04-06T08:25:50;7.90;90.60
16180;DHT22;8196;49.428;10.906;2023-04-06T08:28:19;8.20;87.30
16180;DHT22;8196;49.428;10.906;2023-04-06T08:30:46;8.40;84.50
16180;DHT22;8196;49.428;10.906;2023-04-06T08:33:14;8.60;79.60
16180;DHT22;8196;49.428;10.906;2023-04-06T08:35:42;8.80;75.30
16180;DHT22;8196;49.428;10.906;2023-04-06T08:38:08;8.90;71.70
16180;DHT22;8196;49.428;10.906;2023-04-06T08:40:37;9.20;70.50
16180;DHT22;8196;49.428;10.906;2023-04-06T08:43:06;9.20;63.90
16180;DHT22;8196;49.428;10.906;2023-04-06T08:45:36;9.30;60.80
16180;DHT22;8196;49.428;10.906;2023-04-06T08:48:03;9.30;59.50
16180;DHT22;8196;49.428;10.906;2023-04-06T08:50:33;9.40;59.00
16180;DHT22;8196;49.428;10.906;2023-04-06T08:53:00;9.40;57.80
16180;DHT22;8196;49.428;10.906;2023-04-06T08:55:27;9.40;56.00
16180;DHT22;8196;49.428;10.906;2023-04-06T08:57:54;9.50;55.70
16180;DHT22;8196;49.428;10.906;2023-04-06T09:00:22;9.60;56.00
16180;DHT22;8196;49.428;10.906;2023-04-06T09:02:52;9.80;53.50
16180;DHT22;8196;49.428;10.906;2023-04-06T09:05:20;9.90;52.60
16180;DHT22;8196;49.428;10.906;2023-04-06T09:07:48;10.00;52.20
16180;DHT22;8196;49.428;10.906;2023-04-06T09:10:16;10.30;51.30
16180;DHT22;8196;49.428;10.906;2023-04-06T09:12:43;10.30;48.80
16180;DHT22;8196;49.428;10.906;2023-04-06T09:15:20;10.30;49.30
16180;DHT22;8196;49.428;10.906;2023-04-06T09:17:50;10.40;49.30
16180;DHT22;8196;49.428;10.906;2023-04-06T09:20:23;10.40;49.10
16180;DHT22;8196;49.428;10.906;2023-04-06T09:22:52;10.40;48.40
16180;DHT22;8196;49.428;10.906;2023-04-06T09:25:21;10.60;48.20
16180;DHT22;8196;49.428;10.906;2023-04-06T09:27:59;10.90;47.70
16180;DHT22;8196;49.428;10.906;2023-04-06T09:30:26;11.30;48.30
16180;DHT22;8196;49.428;10.906;2023-04-06T09:32:55;11.60;46.80
16180;DHT22;8196;49.428;10.906;2023-04-06T09:35:23;12.10;45.90
16180;DHT22;8196;49.428;10.906;2023-04-06T09:37:51;12.70;43.70
16180;DHT22;8196;49.428;10.906;2023-04-06T09:40:18;13.40;41.10
16180;DHT22;8196;49.428;10.906;2023-04-06T09:42:46;14.00;40.20
16180;DHT22;8196;49.428;10.906;2023-04-06T09:45:14;14.20;39.10
16180;DHT22;8196;49.428;10.906;2023-04-06T09:47:45;14.60;39.60
16180;DHT22;8196;49.428;10.906;2023-04-06T09:50:13;15.40;38.90
16180;DHT22;8196;49.428;10.906;2023-04-06T09:55:09;17.30;37.50
16180;DHT22;8196;49.428;10.906;2023-04-06T10:00:54;17.30;33.10
16180;DHT22;8196;49.428;10.906;2023-04-06T10:05:58;18.50;32.60
16180;DHT22;8196;49.428;10.906;2023-04-06T10:08:27;19.20;31.60
16180;DHT22;8196;49.428;10.906;2023-04-06T10:10:58;19.90;29.60
16180;DHT22;8196;49.428;10.906;2023-04-06T10:13:27;19.90;28.60
16180;DHT22;8196;49.428;10.906;2023-04-06T10:15:54;19.90;28.30
16180;DHT22;8196;49.428;10.906;2023-04-06T10:18:21;19.40;28.10
16180;DHT22;8196;49.428;10.906;2023-04-06T10:20:57;19.00;28.50
16180;DHT22;8196;49.428;10.906;2023-04-06T10:23:33;18.90;29.00
16180;DHT22;8196;49.428;10.906;2023-04-06T10:26:02;19.10;28.70
16180;DHT22;8196;49.428;10.906;2023-04-06T10:28:32;19.00;29.40
16180;DHT22;8196;49.428;10.906;2023-04-06T10:31:00;19.80;29.70
16180;DHT22;8196;49.428;10.906;2023-04-06T10:33:29;21.20;29.20
16180;DHT22;8196;49.428;10.906;2023-04-06T10:35:56;22.50;28.10
16180;DHT22;8196;49.428;10.906;2023-04-06T10:38:38;23.30;27.30
16180;DHT22;8196;49.428;10.906;2023-04-06T10:41:09;24.00;25.30
16180;DHT22;8196;49.428;10.906;2023-04-06T10:43:38;23.80;24.50
16180;DHT22;8196;49.428;10.906;2023-04-06T10:46:07;22.10;24.40
16180;DHT22;8196;49.428;10.906;2023-04-06T10:48:43;21.50;25.80
16180;DHT22;8196;49.428;10.906;2023-04-06T10:51:12;21.10;26.10
16180;DHT22;8196;49.428;10.906;2023-04-06T10:53:41;22.10;26.60
16180;DHT22;8196;49.428;10.906;2023-04-06T10:56:12;23.20;26.20
16180;DHT22;8196;49.428;10.906;2023-04-06T10:58:44;24.00;25.90
16180;DHT22;8196;49.428;10.906;2023-04-06T11:01:12;24.90;24.50
16180;DHT22;8196;49.428;10.906;2023-04-06T11:03:45;25.10;23.60
16180;DHT22;8196;49.428;10.906;2023-04-06T11:06:18;24.80;23.60
16180;DHT22;8196;49.428;10.906;2023-04-06T11:08:46;24.90;24.50
16180;DHT22;8196;49.428;10.906;2023-04-06T11:11:15;25.50;23.60
16180;DHT22;8196;49.428;10.906;2023-04-06T11:13:56;25.90;24.00
16180;DHT22;8196;49.428;10.906;2023-04-06T11:16:26;26.80;23.60
16180;DHT22;8196;49.428;10.906;2023-04-06T11:18:55;26.50;22.40
16180;DHT22;8196;49.428;10.906;2023-04-06T11:24:12;25.50;23.20
16180;DHT22;8196;49.428;10.906;2023-04-06T11:29:08;24.90;23.40
16180;DHT22;8196;49.428;10.906;2023-04-06T11:31:40;24.00;23.80
16180;DHT22;8196;49.428;10.906;2023-04-06T11:34:11;24.10;24.70
16180;DHT22;8196;49.428;10.906;2023-04-06T11:36:40;24.50;23.50
16180;DHT22;8196;49.428;10.906;2023-04-06T11:39:08;25.00;24.20
16180;DHT22;8196;49.428;10.906;2023-04-06T11:41:35;26.40;24.20
16180;DHT22;8196;49.428;10.906;2023-04-06T11:44:02;27.80;23.20
16180;DHT22;8196;49.428;10.906;2023-04-06T11:46:29;28.50;22.00
16180;DHT22;8196;49.428;10.906;2023-04-06T11:48:59;28.90;20.70
16180;DHT22;8196;49.428;10.906;2023-04-06T11:51:27;28.80;21.20
16180;DHT22;8196;49.428;10.906;2023-04-06T11:53:55;28.80;20.50
16180;DHT22;8196;49.428;10.906;2023-04-06T11:56:24;29.00;20.30
16180;DHT22;8196;49.428;10.906;2023-04-06T11:58:52;28.80;19.80
16180;DHT22;8196;49.428;10.906;2023-04-06T12:01:19;28.20;19.80
16180;DHT22;8196;49.428;10.906;2023-04-06T12:03:45;26.30;20.50
16180;DHT22;8196;49.428;10.906;2023-04-06T12:06:13;25.00;21.80
16180;DHT22;8196;49.428;10.906;2023-04-06T12:08:40;24.80;22.50
16180;DHT22;8196;49.428;10.906;2023-04-06T12:11:07;25.20;22.30
16180;DHT22;8196;49.428;10.906;2023-04-06T12:13:34;25.80;22.40
16180;DHT22;8196;49.428;10.906;2023-04-06T12:16:00;25.20;21.80
16180;DHT22;8196;49.428;10.906;2023-04-06T12:18:27;26.10;22.40
16180;DHT22;8196;49.428;10.906;2023-04-06T12:20:54;27.20;21.60
16180;DHT22;8196;49.428;10.906;2023-04-06T12:23:21;28.60;21.40
16180;DHT22;8196;49.428;10.906;2023-04-06T12:25:48;29.20;20.30
16180;DHT22;8196;49.428;10.906;2023-04-06T12:28:15;29.40;20.60
16180;DHT22;8196;49.428;10.906;2023-04-06T12:30:42;29.60;19.70
16180;DHT22;8196;49.428;10.906;2023-04-06T12:33:09;29.60;20.20
16180;DHT22;8196;49.428;10.906;2023-04-06T12:35:36;29.70;19.80
16180;DHT22;8196;49.428;10.906;2023-04-06T12:38:03;29.20;19.30
16180;DHT22;8196;49.428;10.906;2023-04-06T12:40:30;28.70;19.30
16180;DHT22;8196;49.428;10.906;2023-04-06T12:42:57;28.20;19.50
16180;DHT22;8196;49.428;10.906;2023-04-06T12:45:23;28.30;20.10
16180;DHT22;8196;49.428;10.906;2023-04-06T12:47:50;28.30;19.50
16180;DHT22;8196;49.428;10.906;2023-04-06T12:50:17;28.50;20.00
16180;DHT22;8196;49.428;10.906;2023-04-06T12:52:44;29.00;19.80
16180;DHT22;8196;49.428;10.906;2023-04-06T12:55:11;29.50;19.20
16180;DHT22;8196;49.428;10.906;2023-04-06T12:57:38;28.90;19.10
16180;DHT22;8196;49.428;10.906;2023-04-06T13:00:05;28.80;19.80
16180;DHT22;8196;49.428;10.906;2023-04-06T13:02:34;29.40;19.70
16180;DHT22;8196;49.428;10.906;2023-04-06T13:05:01;29.80;19.20
16180;DHT22;8196;49.428;10.906;2023-04-06T13:07:28;30.10;18.60
16180;DHT22;8196;49.428;10.906;2023-04-06T13:09:55;30.10;19.00
16180;DHT22;8196;49.428;10.906;2023-04-06T13:12:22;30.50;18.40
16180;DHT22;8196;49.428;10.906;2023-04-06T13:14:48;30.20;17.80
16180;DHT22;8196;49.428;10.906;2023-04-06T13:17:18;29.60;19.30
16180;DHT22;8196;49.428;10.906;2023-04-06T13:19:45;29.80;19.00
16180;DHT22;8196;49.428;10.906;2023-04-06T13:22:12;30.60;18.00
16180;DHT22;8196;49.428;10.906;2023-04-06T13:24:39;29.90;19.50
16180;DHT22;8196;49.428;10.906;2023-04-06T13:27:05;28.70;19.20
16180;DHT22;8196;49.428;10.906;2023-04-06T13:29:32;28.40;18.70
16180;DHT22;8196;49.428;10.906;2023-04-06T13:32:00;27.90;18.90
16180;DHT22;8196;49.428;10.906;2023-04-06T13:34:27;28.10;18.60
16180;DHT22;8196;49.428;10.906;2023-04-06T13:36:54;28.50;18.80
16180;DHT22;8196;49.428;10.906;2023-04-06T13:39:21;28.00;18.60
16180;DHT22;8196;49.428;10.906;2023-04-06T13:41:47;28.50;18.80
16180;DHT22;8196;49.428;10.906;2023-04-06T13:44:14;28.50;19.20
16180;DHT22;8196;49.428;10.906;2023-04-06T13:46:41;28.50;18.80
16180;DHT22;8196;49.428;10.906;2023-04-06T13:49:09;29.30;19.70
16180;DHT22;8196;49.428;10.906;2023-04-06T13:51:36;30.10;18.20
16180;DHT22;8196;49.428;10.906;2023-04-06T13:54:03;30.70;18.00
16180;DHT22;8196;49.428;10.906;2023-04-06T13:56:30;30.50;18.60
16180;DHT22;8196;49.428;10.906;2023-04-06T13:58:56;30.40;18.80
16180;DHT22;8196;49.428;10.906;2023-04-06T14:01:23;30.70;19.00
16180;DHT22;8196;49.428;10.906;2023-04-06T14:03:50;31.60;18.00
16180;DHT22;8196;49.428;10.906;2023-04-06T14:06:17;32.10;17.50
16180;DHT22;8196;49.428;10.906;2023-04-06T14:08:57;31.90;17.90
16180;DHT22;8196;49.428;10.906;2023-04-06T14:11:24;31.90;17.70
16180;DHT22;8196;49.428;10.906;2023-04-06T14:13:51;31.00;17.60
16180;DHT22;8196;49.428;10.906;2023-04-06T14:16:17;30.70;18.50
16180;DHT22;8196;49.428;10.906;2023-04-06T14:18:46;28.90;16.70
16180;DHT22;8196;49.428;10.906;2023-04-06T14:21:13;31.50;18.00
16180;DHT22;8196;49.428;10.906;2023-04-06T14:23:39;30.80;17.70
16180;DHT22;8196;49.428;10.906;2023-04-06T14:26:07;28.50;18.60
16180;DHT22;8196;49.428;10.906;2023-04-06T14:28:35;26.40;19.40
16180;DHT22;8196;49.428;10.906;2023-04-06T14:31:09;25.30;20.50
16180;DHT22;8196;49.428;10.906;2023-04-06T14:33:38;24.40;20.90
16180;DHT22;8196;49.428;10.906;2023-04-06T14:36:05;23.20;21.50
16180;DHT22;8196;49.428;10.906;2023-04-06T14:38:32;21.80;22.10
16180;DHT22;8196;49.428;10.906;2023-04-06T14:40:59;21.70;22.60
16180;DHT22;8196;49.428;10.906;2023-04-06T14:43:26;21.20;22.50
16180;DHT22;8196;49.428;10.906;2023-04-06T14:45:53;19.90;23.20
16180;DHT22;8196;49.428;10.906;2023-04-06T14:48:19;18.60;24.50
16180;DHT22;8196;49.428;10.906;2023-04-06T14:50:53;17.70;25.60
16180;DHT22;8196;49.428;10.906;2023-04-06T14:53:20;17.00;26.50
16180;DHT22;8196;49.428;10.906;2023-04-06T14:55:47;16.50;26.90
16180;DHT22;8196;49.428;10.906;2023-04-06T14:58:16;16.00;27.60
16180;DHT22;8196;49.428;10.906;2023-04-06T15:00:43;15.50;28.40
16180;DHT22;8196;49.428;10.906;2023-04-06T15:03:10;15.70;29.00
16180;DHT22;8196;49.428;10.906;2023-04-06T15:05:37;17.70;28.40
16180;DHT22;8196;49.428;10.906;2023-04-06T15:08:04;20.60;27.20
16180;DHT22;8196;49.428;10.906;2023-04-06T15:10:32;23.40;25.00
16180;DHT22;8196;49.428;10.906;2023-04-06T15:12:59;25.50;22.50
16180;DHT22;8196;49.428;10.906;2023-04-06T15:15:26;26.50;21.10
16180;DHT22;8196;49.428;10.906;2023-04-06T15:17:52;27.50;19.90
16180;DHT22;8196;49.428;10.906;2023-04-06T15:20:19;27.40;19.90
16180;DHT22;8196;49.428;10.906;2023-04-06T15:22:46;27.10;19.50
16180;DHT22;8196;49.428;10.906;2023-04-06T15:25:13;26.40;20.70
16180;DHT22;8196;49.428;10.906;2023-04-06T15:27:39;26.90;20.70
16180;DHT22;8196;49.428;10.906;2023-04-06T15:30:06;27.70;20.20
16180;DHT22;8196;49.428;10.906;2023-04-06T15:32:33;28.30;20.90
16180;DHT22;8196;49.428;10.906;2023-04-06T15:35:02;28.80;19.70
16180;DHT22;8196;49.428;10.906;2023-04-06T15:37:34;29.10;19.60
16180;DHT22;8196;49.428;10.906;2023-04-06T15:40:01;29.20;19.60
16180;DHT22;8196;49.428;10.906;2023-04-06T15:42:27;28.60;19.30
16180;DHT22;8196;49.428;10.906;2023-04-06T15:44:54;29.30;19.60
16180;DHT22;8196;49.428;10.906;2023-04-06T15:47:21;29.00;19.80